Bayanhongor, Mongolia
Current Conditions -  °F | °C
As of 6:00 PM on Sunday 23 Nov 2014 (Local Time) from ZMUB Reporting Station
Clear Clear  
Wind Chill: -4°   Ceiling: Unl
Heat Index:   Visibility: 6mi
Dew Point: -6°   Wind: 4mph
Humidity: 61%   Direction: 140°SE
Pressure: 30.09"   Gusts: NA
Location:  46.13°N, 100.68°E
Report Text: ZMUB 231000Z 14002MPS CAVOK M15/M21 Q1019 NOSIG RMK QFE657.0 60
Loading
Personal Weather Stations






























Interactive Weather Map New forecast layout! Learn more

10-Day Weather Forecast

Advertisements
Track Severe Weather on mobile